LIEALFKF

Guest
Details From LIEA - ALGHERO
To LFKF - Figari Sud Corse
Flight Number -
Tags generated
Created
Modified
Stats Distance 65 nm / 119 km
Max Altitude 2,200 ft / 671 m
Waypoints 3
Social Downloads 1
Likes 0
Share VATSIM

Download

Looking for another format? Having issues loading an existing format? Contact us
Advertisement - Login to hide

Notes

Basic altitude profile: - Ascent Rate: 2500ft/min - Ascent Speed: 250kts - Cruise Altitude: 35000ft - Cruise Speed: 420kts - Descent Rate: 1500ft/min - Descent Speed: 250kts

Route

LIEA TEREZ LFKF

ID Type Via Altitude Latitude Longitude Leg Dist Tot Dist Heading (true) Name
O LIEA APT - 0 ft / 0 m 40.63213˚ 8.29077˚ - 0 nm - ALGHERO
TEREZ FIX - 2,200 ft / 671 m 41.33333˚ 9.03694˚ 54 nm 54 nm 39° / 39° -
O LFKF APT - 0 ft / 0 m 41.50206˚ 9.09696˚ 10 nm 64 nm 15° / 15° Figari Sud Corse

Altitude Profile

Advertisement - Login to hide

LIEA

Details ICAO LIEA (AHO)
Name ALGHERO
Region Italy
Timezone Europe/Rome (UTC+1.0)
Stats Elevation 87 ft / 27 m (AMSL)
Location 40.632132° 8.290774°
Runways 1
Magnetic Variation 2.193° E

METAR

LIEA 111450Z 19022G34KT 9999 FEW040 17/12 Q1000

Decode

TAF

TAF LIEA 111100Z 1112/1212 22020G30KT 9999 SCT030 BECMG 1119/1121 20010KT TEMPO 1121/1124 SHRA TEMPO 1206/1212 SHRA

Decode

Departure Runways

ID Width Length Bearing (true) Bearing (mag) Surface Threshold Offset Overrun Length
02 148 ft / 45 m 9,854 ft / 3,004 m 24.51° 22.32° Asphalt 0 ft / 0 m 0 ft / 0 m
20 148 ft / 45 m 9,854 ft / 3,004 m 204.52° 202.33° Asphalt 0 ft / 0 m 0 ft / 0 m

LFKF

Details ICAO LFKF (FSC)
Name Figari Sud Corse
Region France
Timezone Europe/Paris (UTC+1.0)
Stats Elevation 87 ft / 27 m (AMSL)
Location 41.502064° 9.096960°
Runways 1
Magnetic Variation 2.377° E

METAR

LFKF 111500Z AUTO 25009KT 9999 OVC066/// 17/10 Q1001 NOSIG

Decode

TAF

TAF TAF LFKF 111400Z 1115/1215 24015KT 9999 FEW040 BKN080 BKN210 TEMPO 1200/1203 RA TEMPO 1212/1215 RA

Decode

Destination Runways

ID Width Length Bearing (true) Bearing (mag) Surface Threshold Offset Overrun Length
05 148 ft / 45 m 8,131 ft / 2,478 m 47.42° 45.04° Asphalt 0 ft / 0 m 0 ft / 0 m
23 148 ft / 45 m 8,131 ft / 2,478 m 227.44° 225.06° Asphalt 0 ft / 0 m 0 ft / 0 m

Approach Navaids

Runway Type Ident Frequency Range Bearing (true) Bearing (mag) Slope Elevation
23 Localiser GR 110.50 MHz 27 nm / 50 km 229.00° 226.62° - 87 ft / 27 m (AMSL)
23 Glidescope GR 110.50 MHz 27 nm / 50 km 229.00° 226.62° 3.50° 87 ft / 27 m (AMSL)
23 DME GR 110.50 MHz 18 nm / 33 km - - - 131 ft / 40 m (AMSL)

Popular Alternatives